sensor_id;sensor_type;location;lat;lon;timestamp;pressure;altitude;pressure_sealevel;temperature;humidity
46382;BME280;66809;52.974;-2.514;2023-09-19T00:01:31;996.8628707308616;;;10.558366779206553;41.571533204128635
46382;BME280;66809;52.974;-2.514;2023-09-19T00:03:31;996.8733671451447;;;10.555474396539388;41.593482842134435
46382;BME280;66809;52.974;-2.514;2023-09-19T00:05:34;996.8810310009013;;;10.552233268452891;41.620738955618705
46382;BME280;66809;52.974;-2.514;2023-09-19T00:07:32;996.884728966343;;;10.551823642582216;41.62476270764071
46382;BME280;66809;52.974;-2.514;2023-09-19T00:09:31;996.8866184654402;;;10.570902704234639;41.6403673609758
46382;BME280;66809;52.974;-2.514;2023-09-19T00:11:32;996.8873345560153;;;10.594451687893928;41.65459971692664
46382;BME280;66809;52.974;-2.514;2023-09-19T00:13:31;996.8859990873885;;;10.621985350222136;41.659422022445774
46382;BME280;66809;52.974;-2.514;2023-09-19T00:15:38;996.8812100011783;;;10.643498898386989;41.65119861681421
46382;BME280;66809;52.974;-2.514;2023-09-19T00:17:31;996.8751569356677;;;10.670809892818975;41.64385937359684
46382;BME280;66809;52.974;-2.514;2023-09-19T00:19:32;996.8666277083869;;;10.693347630615614;41.61383938113777
46382;BME280;66809;52.974;-2.514;2023-09-19T00:21:31;996.857136354888;;;10.728375938534827;41.57234833638872
46382;BME280;66809;52.974;-2.514;2023-09-19T00:23:32;996.845151680123;;;10.74193932546127;41.52134255607213
46382;BME280;66809;52.974;-2.514;2023-09-19T00:25:31;996.8312725449454;;;10.76697121089206;41.47289655578676
46382;BME280;66809;52.974;-2.514;2023-09-19T00:27:32;996.8149456819714;;;10.794118360363656;41.432099562072786
46382;BME280;66809;52.974;-2.514;2023-09-19T00:29:31;996.7984354152971;;;10.816024675162337;41.386887671101185
46382;BME280;66809;52.974;-2.514;2023-09-19T00:31:31;996.783442650987;;;10.846440214595704;41.352563825065225
46382;BME280;66809;52.974;-2.514;2023-09-19T00:33:32;996.767406648601;;;10.87484133711516;41.331293722870505
46382;BME280;66809;52.974;-2.514;2023-09-19T00:35:31;996.7516190987286;;;10.895943143064018;41.297276190639764
46382;BME280;66809;52.974;-2.514;2023-09-19T00:37:31;996.7382420056908;;;10.907017456927475;41.26687180153119
46382;BME280;66809;52.974;-2.514;2023-09-19T00:39:31;996.7259256780911;;;10.925455812831736;41.234610371149486
46382;BME280;66809;52.974;-2.514;2023-09-19T00:41:31;996.7115930871096;;;10.941238245001614;41.19950781152409
46382;BME280;66809;52.974;-2.514;2023-09-19T00:43:32;996.6972997238865;;;10.968229929976912;41.172551705265306
46382;BME280;66809;52.974;-2.514;2023-09-19T00:45:32;996.6856913970485;;;10.99764980361448;41.13598320053316
46382;BME280;66809;52.974;-2.514;2023-09-19T00:47:31;996.6763827372458;;;11.013305326483982;41.10864237413184
46382;BME280;66809;52.974;-2.514;2023-09-19T00:49:32;996.6701086755381;;;11.04819291476922;41.07158521477431
46382;BME280;66809;52.974;-2.514;2023-09-19T00:51:32;996.6656494212772;;;11.081609296245732;41.05856020298879
46382;BME280;66809;52.974;-2.514;2023-09-19T00:53:32;996.6604611192557;;;11.123758401897186;41.05575485468691
46382;BME280;66809;52.974;-2.514;2023-09-19T00:55:32;996.6543681508936;;;11.16195852464483;41.03704258762352
46382;BME280;66809;52.974;-2.514;2023-09-19T00:57:32;996.6471143530824;;;11.19602392580943;41.02137326906058
46382;BME280;66809;52.974;-2.514;2023-09-19T00:59:31;996.6404799361494;;;11.227801876800443;41.01345404806325
46382;BME280;66809;52.974;-2.514;2023-09-19T01:01:32;996.6330317329232;;;11.273318125575546;41.01339891722456
46382;BME280;66809;52.974;-2.514;2023-09-19T01:03:32;996.623442000641;;;11.300468637129244;40.98547393319782
46382;BME280;66809;52.974;-2.514;2023-09-19T01:05:31;996.6139117648381;;;11.319751871764128;40.9525375120697
46382;BME280;66809;52.974;-2.514;2023-09-19T01:07:32;996.6028748320958;;;11.340497935429191;40.932433532894585
46382;BME280;66809;52.974;-2.514;2023-09-19T01:09:32;996.5894383713517;;;11.346483592044475;40.894849069188396
46382;BME280;66809;52.974;-2.514;2023-09-19T01:11:37;996.5783850858762;;;11.356685037081867;40.87198162321726
46382;BME280;66809;52.974;-2.514;2023-09-19T01:13:38;996.5692202093044;;;11.357032074752915;40.863250117399055
46382;BME280;66809;52.974;-2.514;2023-09-19T01:15:42;996.5626902293895;;;11.36340764477997;40.85411710271971
46382;BME280;66809;52.974;-2.514;2023-09-19T01:17:37;996.555959931047;;;11.36969920288297;40.84773398143614
46382;BME280;66809;52.974;-2.514;2023-09-19T01:20:27;996.5504031842523;;;11.384536575619;40.864425468338716
46382;BME280;66809;52.974;-2.514;2023-09-19T01:21:37;996.5439788906157;;;11.389513207957744;40.885822276251474
46382;BME280;66809;52.974;-2.514;2023-09-19T01:23:54;996.5372566407983;;;11.410201381673424;40.903083734747035
46382;BME280;66809;52.974;-2.514;2023-09-19T01:25:54;996.5337695831571;;;11.425073609820716;40.92368763786323
46382;BME280;66809;52.974;-2.514;2023-09-19T01:27:56;996.5330110783304;;;11.434797442644442;40.933391640988184
46382;BME280;66809;52.974;-2.514;2023-09-19T01:29:37;996.5313448923004;;;11.455283124430917;40.946134069877715
46382;BME280;66809;52.974;-2.514;2023-09-19T01:31:34;996.5270372626928;;;11.463688624777454;40.939432999879024
46382;BME280;66809;52.974;-2.514;2023-09-19T01:33:54;996.5179395145962;;;11.464025135945889;40.92125670002178
46382;BME280;66809;52.974;-2.514;2023-09-19T01:35:32;996.507069465633;;;11.474249692152506;40.916536304440406
46382;BME280;66809;52.974;-2.514;2023-09-19T01:37:31;996.4973685079872;;;11.483207637007144;40.927723159640486
46382;BME280;66809;52.974;-2.514;2023-09-19T01:39:31;996.4864774310615;;;11.496146089354701;40.936359080808145
46382;BME280;66809;52.974;-2.514;2023-09-19T01:41:48;996.4765919646759;;;11.510353273223542;40.945486586807434
46382;BME280;66809;52.974;-2.514;2023-09-19T01:43:36;996.4680544823335;;;11.529157266128164;40.947741395206506
46382;BME280;66809;52.974;-2.514;2023-09-19T01:45:35;996.4602414208638;;;11.536566293545008;40.95215264031947
46382;BME280;66809;52.974;-2.514;2023-09-19T01:47:33;996.4498232827286;;;11.565277241044864;40.950379722184145
46382;BME280;66809;52.974;-2.514;2023-09-19T01:49:41;996.4361076836848;;;11.566991740996002;40.95155181828571
46382;BME280;66809;52.974;-2.514;2023-09-19T01:51:34;996.4211426414618;;;11.583345267995119;40.9437897627557
46382;BME280;66809;52.974;-2.514;2023-09-19T01:53:36;996.4056125478005;;;11.581680000036592;40.9207045436021
46382;BME280;66809;52.974;-2.514;2023-09-19T01:55:36;996.3911793823647;;;11.586443198222797;40.91264688648648
46382;BME280;66809;52.974;-2.514;2023-09-19T01:57:36;996.374606223658;;;11.590912315378784;40.913335552479275
46382;BME280;66809;52.974;-2.514;2023-09-19T01:59:36;996.3581719039535;;;11.59457693638844;40.90449750789946
46382;BME280;66809;52.974;-2.514;2023-09-19T02:01:32;996.3445820075782;;;11.584797299255676;40.88593637153092
46382;BME280;66809;52.974;-2.514;2023-09-19T02:03:32;996.3339945083441;;;11.592342427821952;40.87739041190658
46382;BME280;66809;52.974;-2.514;2023-09-19T02:05:32;996.3243555427395;;;11.601829277182413;40.88063238779193
46382;BME280;66809;52.974;-2.514;2023-09-19T02:07:32;996.3175162772658;;;11.604693585513347;40.8888837437612
46382;BME280;66809;52.974;-2.514;2023-09-19T02:09:32;996.3111928780444;;;11.618969657176477;40.9074461185255
46382;BME280;66809;52.974;-2.514;2023-09-19T02:11:31;996.3017819895547;;;11.621189940582052;40.90931088681035
46382;BME280;66809;52.974;-2.514;2023-09-19T02:13:31;996.28822431787;;;11.626013597648969;40.89712875477348
46382;BME280;66809;52.974;-2.514;2023-09-19T02:15:32;996.2737804107394;;;11.626737003449962;40.90597000593951
46382;BME280;66809;52.974;-2.514;2023-09-19T02:17:31;996.2582458173954;;;11.620880699187556;40.915597190474365
46382;BME280;66809;52.974;-2.514;2023-09-19T02:19:32;996.2417908508136;;;11.616966110118447;40.930037146479165
46382;BME280;66809;52.974;-2.514;2023-09-19T02:21:32;996.2276463832771;;;11.603892357509531;40.94634158622197
46382;BME280;66809;52.974;-2.514;2023-09-19T02:23:31;996.2149189995991;;;11.602807188188645;40.97748069756917
46382;BME280;66809;52.974;-2.514;2023-09-19T02:25:31;996.2009810535171;;;11.592875838964659;41.00763553972287
46382;BME280;66809;52.974;-2.514;2023-09-19T02:27:32;996.1842869997877;;;11.59110168540933;41.04014971130877
46382;BME280;66809;52.974;-2.514;2023-09-19T02:29:31;996.1683720303674;;;11.580279710671512;41.077475893062825
46382;BME280;66809;52.974;-2.514;2023-09-19T02:31:31;996.1538083115048;;;11.576717199899923;41.12649138510355
46382;BME280;66809;52.974;-2.514;2023-09-19T02:33:32;996.1433741328223;;;11.584708466715407;41.179430061692344
46382;BME280;66809;52.974;-2.514;2023-09-19T02:35:31;996.1336683027865;;;11.581052706698229;41.21822524382964
46382;BME280;66809;52.974;-2.514;2023-09-19T02:37:31;996.1238205557344;;;11.588103759451863;41.25917466233673
46382;BME280;66809;52.974;-2.514;2023-09-19T02:39:32;996.1121576531164;;;11.587743294235223;41.301298566790585
46382;BME280;66809;52.974;-2.514;2023-09-19T02:41:32;996.0990059896566;;;11.577570404240507;41.34549009547383
46382;BME280;66809;52.974;-2.514;2023-09-19T02:43:31;996.0845511342839;;;11.567224419629662;41.390758352287875
46382;BME280;66809;52.974;-2.514;2023-09-19T02:45:32;996.0668467778254;;;11.562377205727332;41.4395610303835
46382;BME280;66809;52.974;-2.514;2023-09-19T02:47:31;996.0469146994332;;;11.54244648250596;41.47903519273321
46382;BME280;66809;52.974;-2.514;2023-09-19T02:49:31;996.0259039823123;;;11.538781853257705;41.52499144614323
46382;BME280;66809;52.974;-2.514;2023-09-19T02:51:32;996.0067849043455;;;11.513834215594121;41.567612148545926
46382;BME280;66809;52.974;-2.514;2023-09-19T02:53:31;995.988113222325;;;11.511137943534546;41.60405410462752
46382;BME280;66809;52.974;-2.514;2023-09-19T02:55:32;995.9696317210759;;;11.498466673128139;41.646092921800026
46382;BME280;66809;52.974;-2.514;2023-09-19T02:57:32;995.9554254980932;;;11.50087891216428;41.68429752216784
46382;BME280;66809;52.974;-2.514;2023-09-19T02:59:32;995.9420572191067;;;11.497030725146105;41.730065672619624
46382;BME280;66809;52.974;-2.514;2023-09-19T03:01:32;995.9261613985728;;;11.493140529456648;41.77327580758139
46382;BME280;66809;52.974;-2.514;2023-09-19T03:03:32;995.9086644228667;;;11.480032353696524;41.82266704131236
46382;BME280;66809;52.974;-2.514;2023-09-19T03:05:31;995.8891216820895;;;11.478545173504132;41.86528370797992
46382;BME280;66809;52.974;-2.514;2023-09-19T03:07:32;995.8706286155284;;;11.47909131388499;41.91537567405282
46382;BME280;66809;52.974;-2.514;2023-09-19T03:09:31;995.8543947470046;;;11.479090495476665;41.95771658852537
46382;BME280;66809;52.974;-2.514;2023-09-19T03:11:31;995.8414003031814;;;11.491473163824669;42.017160607786614
46382;BME280;66809;52.974;-2.514;2023-09-19T03:13:32;995.8316879686589;;;11.50544596781878;42.07445244881763
46382;BME280;66809;52.974;-2.514;2023-09-19T03:15:31;995.8195698761763;;;11.516208327307554;42.108165044730534
46382;BME280;66809;52.974;-2.514;2023-09-19T03:17:31;995.8050604474106;;;11.527248769352248;42.12624980935688
46382;BME280;66809;52.974;-2.514;2023-09-19T03:19:32;995.7881294051042;;;11.534204944468149;42.12753387540906
46382;BME280;66809;52.974;-2.514;2023-09-19T03:21:31;995.767432233483;;;11.545741100778287;42.13274745167572
46382;BME280;66809;52.974;-2.514;2023-09-19T03:23:32;995.74750847366;;;11.560756566028713;42.14424580754379
46382;BME280;66809;52.974;-2.514;2023-09-19T03:25:34;995.7267558420937;;;11.563083961457448;42.15819346972019
46382;BME280;66809;52.974;-2.514;2023-09-19T03:27:31;995.7064624212659;;;11.556178684022955;42.17705202481391
46382;BME280;66809;52.974;-2.514;2023-09-19T03:29:32;995.6838104835003;;;11.56252859453305;42.195023076785134
46382;BME280;66809;52.974;-2.514;2023-09-19T03:31:32;995.661293533474;;;11.557452871799864;42.213582160078346
46382;BME280;66809;52.974;-2.514;2023-09-19T03:33:31;995.6389053292527;;;11.555663214780022;42.226147590554085
46382;BME280;66809;52.974;-2.514;2023-09-19T03:35:31;995.6163864746766;;;11.553328249201343;42.24861738576975
46382;BME280;66809;52.974;-2.514;2023-09-19T03:37:32;995.5908044312774;;;11.538328768254901;42.25450150731125
46382;BME280;66809;52.974;-2.514;2023-09-19T03:39:32;995.564863380175;;;11.530001417548887;42.26666804758643
46382;BME280;66809;52.974;-2.514;2023-09-19T03:41:31;995.5370684316987;;;11.542728104446004;42.279117276106604
46382;BME280;66809;52.974;-2.514;2023-09-19T03:43:32;995.5086751089221;;;11.54252939213138;42.293937565287365
46382;BME280;66809;52.974;-2.514;2023-09-19T03:45:33;995.4809989941717;;;11.535882468955823;42.32092706801054
46382;BME280;66809;52.974;-2.514;2023-09-19T03:47:32;995.454303415817;;;11.54407538580651;42.35587700930294
46382;BME280;66809;52.974;-2.514;2023-09-19T03:49:31;995.4272317387529;;;11.549354869920618;42.389851392818336
46382;BME280;66809;52.974;-2.514;2023-09-19T03:51:31;995.3962094143569;;;11.561808502939869;42.421463522531965
46382;BME280;66809;52.974;-2.514;2023-09-19T03:53:32;995.3634053385213;;;11.563444809561028;42.463280128954736
46382;BME280;66809;52.974;-2.514;2023-09-19T03:55:31;995.3314004898068;;;11.568328111566956;42.499980097937616
46382;BME280;66809;52.974;-2.514;2023-09-19T03:57:32;995.2979807446303;;;11.561984491608673;42.535599324125336
46382;BME280;66809;52.974;-2.514;2023-09-19T03:59:32;995.2621541308704;;;11.566864852268653;42.5628768462957
46382;BME280;66809;52.974;-2.514;2023-09-19T04:01:31;995.2239028769361;;;11.5629754938693;42.60073692632261
46382;BME280;66809;52.974;-2.514;2023-09-19T04:03:32;995.1846789433106;;;11.56751977703454;42.651160196148545
46382;BME280;66809;52.974;-2.514;2023-09-19T04:05:31;995.1442008490322;;;11.565554507280106;42.69539951655095
46382;BME280;66809;52.974;-2.514;2023-09-19T04:07:31;995.1001326892277;;;11.565890139023178;42.729603303802485
46382;BME280;66809;52.974;-2.514;2023-09-19T04:09:32;995.0532510265031;;;11.539498175451987;42.77027742026816
46382;BME280;66809;52.974;-2.514;2023-09-19T04:11:31;995.0015028415469;;;11.509620147682798;42.799633652139924
46382;BME280;66809;52.974;-2.514;2023-09-19T04:13:32;994.9466856557755;;;11.48689734776043;42.855259822856326
46382;BME280;66809;52.974;-2.514;2023-09-19T04:15:31;994.8940380405145;;;11.452911503082454;42.92962375200779
46382;BME280;66809;52.974;-2.514;2023-09-19T04:17:31;994.8423402318672;;;11.428967059611356;43.02451415263967
46382;BME280;66809;52.974;-2.514;2023-09-19T04:19:31;994.7933541909192;;;11.404274824995355;43.13707554291115
46382;BME280;66809;52.974;-2.514;2023-09-19T04:21:32;994.744025763415;;;11.384487375160877;43.25322512363846
46382;BME280;66809;52.974;-2.514;2023-09-19T04:23:31;994.6916034751229;;;11.363152250549948;43.357437975022165
46382;BME280;66809;52.974;-2.514;2023-09-19T04:25:31;994.6355668036995;;;11.347433546490414;43.45327871567167
46382;BME280;66809;52.974;-2.514;2023-09-19T04:27:31;994.5781957239789;;;11.337560618896168;43.5482381223936
46382;BME280;66809;52.974;-2.514;2023-09-19T04:29:31;994.5223747861029;;;11.314684569681775;43.641923681236285
46382;BME280;66809;52.974;-2.514;2023-09-19T04:31:32;994.4629965222837;;;11.309901245867907;43.74725991495643
46382;BME280;66809;52.974;-2.514;2023-09-19T04:33:31;994.401864614802;;;11.296933427059356;43.8579629648488
46382;BME280;66809;52.974;-2.514;2023-09-19T04:35:32;994.3413203559118;;;11.280692987222704;43.96513925465272
46382;BME280;66809;52.974;-2.514;2023-09-19T04:37:31;994.2822823973489;;;11.268167126816765;44.085642137188856
46382;BME280;66809;52.974;-2.514;2023-09-19T04:39:32;994.2230077103318;;;11.254186848489265;44.19439791844507
46382;BME280;66809;52.974;-2.514;2023-09-19T04:41:31;994.1637668846382;;;11.230839464995455;44.30530147456417
46382;BME280;66809;52.974;-2.514;2023-09-19T04:43:32;994.1040108434519;;;11.210472722336373;44.41140932141953
46382;BME280;66809;52.974;-2.514;2023-09-19T04:45:31;994.0429079219322;;;11.20908596139569;44.50673365087791
46382;BME280;66809;52.974;-2.514;2023-09-19T04:47:31;993.981669083969;;;11.20053974180056;44.59892108624522
46382;BME280;66809;52.974;-2.514;2023-09-19T04:49:32;993.9185544249897;;;11.18783152542825;44.68775715525793
46382;BME280;66809;52.974;-2.514;2023-09-19T04:51:31;993.8534952584511;;;11.157112523946711;44.78127973651972
46382;BME280;66809;52.974;-2.514;2023-09-19T04:53:32;993.7918388985419;;;11.140132676532051;44.87089654487628
46382;BME280;66809;52.974;-2.514;2023-09-19T04:55:31;993.726480107582;;;11.125208413259559;44.96022551549357
46382;BME280;66809;52.974;-2.514;2023-09-19T04:57:31;993.6605514491996;;;11.09564977766851;45.05858869438014
46382;BME280;66809;52.974;-2.514;2023-09-19T04:59:32;993.5921927937014;;;11.07474615505659;45.15884773226007
46382;BME280;66809;52.974;-2.514;2023-09-19T05:01:31;993.5253244424949;;;11.061317483532832;45.25080153306223
46382;BME280;66809;52.974;-2.514;2023-09-19T05:03:32;993.4576599829272;;;11.050395581829447;45.330305242816756
46382;BME280;66809;52.974;-2.514;2023-09-19T05:05:31;993.3921886358829;;;11.036210715403563;45.402941090138015
46382;BME280;66809;52.974;-2.514;2023-09-19T05:07:31;993.3283647036408;;;11.021330567095022;45.48716339790682
46382;BME280;66809;52.974;-2.514;2023-09-19T05:09:32;993.265694901617;;;11.0290076074162;45.57678178447296
46382;BME280;66809;52.974;-2.514;2023-09-19T05:11:31;993.2054992540958;;;11.029310931348562;45.66674331657922
46382;BME280;66809;52.974;-2.514;2023-09-19T05:13:32;993.1468872792575;;;11.020644137272006;45.737322517654775
46382;BME280;66809;52.974;-2.514;2023-09-19T05:15:32;993.0885548434001;;;11.023930213063478;45.80639573020192
46382;BME280;66809;52.974;-2.514;2023-09-19T05:17:31;993.02779781604;;;11.0290450073704;45.870294533539116
46382;BME280;66809;52.974;-2.514;2023-09-19T05:19:32;992.9645515455065;;;11.035487334312197;45.92685186449437
46382;BME280;66809;52.974;-2.514;2023-09-19T05:21:31;992.9019885691602;;;11.037839922797408;45.98770820493296
46382;BME280;66809;52.974;-2.514;2023-09-19T05:23:31;992.8422686998947;;;11.028549282451623;46.05381250150396
46382;BME280;66809;52.974;-2.514;2023-09-19T05:25:32;992.7839570313544;;;11.0288517580633;46.12406161119471
46382;BME280;66809;52.974;-2.514;2023-09-19T05:27:31;992.7287831135287;;;11.025599290945376;46.18962944775155
46382;BME280;66809;52.974;-2.514;2023-09-19T05:29:32;992.6725559522088;;;11.033014172468635;46.26563539831284
46382;BME280;66809;52.974;-2.514;2023-09-19T05:31:31;992.6172992324607;;;11.031963909993244;46.33654434226063
46382;BME280;66809;52.974;-2.514;2023-09-19T05:33:32;992.5618002700729;;;11.026767180967738;46.40220243425907
46382;BME280;66809;52.974;-2.514;2023-09-19T05:35:32;992.5071308756507;;;11.03473237397163;46.46241119506384
46382;BME280;66809;52.974;-2.514;2023-09-19T05:37:31;992.4524449499019;;;11.04308406359386;46.516842040220375
46382;BME280;66809;52.974;-2.514;2023-09-19T05:39:31;992.3949934027812;;;11.042335421555585;46.579770805340246
46382;BME280;66809;52.974;-2.514;2023-09-19T05:41:32;992.3364112535411;;;11.046039898109818;46.63431520267538
46382;BME280;66809;52.974;-2.514;2023-09-19T05:43:31;992.2790371604303;;;11.062732806682156;46.6861474012993
46382;BME280;66809;52.974;-2.514;2023-09-19T05:45:32;992.2220846964226;;;11.083194089570132;46.717708847938674
46382;BME280;66809;52.974;-2.514;2023-09-19T05:47:31;992.1669964870421;;;11.090601029880755;46.74040747023222
46382;BME280;66809;52.974;-2.514;2023-09-19T05:49:31;992.1128696127315;;;11.109861301187262;46.7477554420309
46382;BME280;66809;52.974;-2.514;2023-09-19T05:51:32;992.063665184551;;;11.14426934161062;46.75572612933262
46382;BME280;66809;52.974;-2.514;2023-09-19T05:53:31;992.0129828818366;;;11.167991150085223;46.76830103990704
46382;BME280;66809;52.974;-2.514;2023-09-19T05:55:32;991.9660483678189;;;11.18792145230113;46.78562372525702
46382;BME280;66809;52.974;-2.514;2023-09-19T05:57:32;991.9195694267769;;;11.233764277662328;46.796716862584645
46382;BME280;66809;52.974;-2.514;2023-09-19T05:59:31;991.8778472139815;;;11.265986915961902;46.80698858297892
46382;BME280;66809;52.974;-2.514;2023-09-19T06:01:32;991.8383717816487;;;11.299321598694508;46.80813055750649
46382;BME280;66809;52.974;-2.514;2023-09-19T06:03:31;991.8007623772618;;;11.328217006635587;46.81739740397279
46382;BME280;66809;52.974;-2.514;2023-09-19T06:05:31;991.7621006004159;;;11.363195589658252;46.83022781105724
46382;BME280;66809;52.974;-2.514;2023-09-19T06:07:32;991.7240988613598;;;11.403013863861736;46.825246220864514
46382;BME280;66809;52.974;-2.514;2023-09-19T06:09:31;991.685554806532;;;11.422517928990718;46.809495019335664
46382;BME280;66809;52.974;-2.514;2023-09-19T06:11:31;991.6459891350514;;;11.45629720283745;46.79752866042962
46382;BME280;66809;52.974;-2.514;2023-09-19T06:13:32;991.6056238979722;;;11.480668182041006;46.78926104309576
46382;BME280;66809;52.974;-2.514;2023-09-19T06:15:32;991.5646374594115;;;11.52122800966699;46.76164376923719
46382;BME280;66809;52.974;-2.514;2023-09-19T06:17:31;991.5266836601854;;;11.555356087288345;46.73532979892032
46382;BME280;66809;52.974;-2.514;2023-09-19T06:19:32;991.4909629481311;;;11.588333074017896;46.705858420955096
46382;BME280;66809;52.974;-2.514;2023-09-19T06:21:31;991.4553750584931;;;11.62462262476979;46.661741478148535
46382;BME280;66809;52.974;-2.514;2023-09-19T06:23:31;991.4214572729034;;;11.67993891373228;46.613371881987
46382;BME280;66809;52.974;-2.514;2023-09-19T06:25:32;991.3869946294193;;;11.740783898436234;46.5475496778699
46382;BME280;66809;52.974;-2.514;2023-09-19T06:27:31;991.3513223388696;;;11.791509320993653;46.48009776542457
46382;BME280;66809;52.974;-2.514;2023-09-19T06:29:32;991.315054436098;;;11.841042960183609;46.398594170360624
46382;BME280;66809;52.974;-2.514;2023-09-19T06:31:31;991.2781952902616;;;11.89135798234171;46.318105036344576
46382;BME280;66809;52.974;-2.514;2023-09-19T06:33:32;991.2424803895542;;;11.943962502581261;46.240617800730796
46382;BME280;66809;52.974;-2.514;2023-09-19T06:35:33;991.2067115526684;;;11.997835837836696;46.169113788810016
46382;BME280;66809;52.974;-2.514;2023-09-19T06:37:32;991.172062314228;;;12.05126310686481;46.09361867298497
46382;BME280;66809;52.974;-2.514;2023-09-19T06:39:31;991.1427820438104;;;12.120236061781949;46.00065720482913
46382;BME280;66809;52.974;-2.514;2023-09-19T06:41:32;991.1147646806993;;;12.183209857452404;45.91894961260903
46382;BME280;66809;52.974;-2.514;2023-09-19T06:43:32;991.0872610155753;;;12.234506031840482;45.83433418366824
46382;BME280;66809;52.974;-2.514;2023-09-19T06:45:31;991.0621856008713;;;12.278675131880899;45.76989660334869
46382;BME280;66809;52.974;-2.514;2023-09-19T06:47:31;991.0343627755262;;;12.33347034387628;45.717449742030865
46382;BME280;66809;52.974;-2.514;2023-09-19T06:49:32;991.0078234660173;;;12.365625134074419;45.685176901646074
46382;BME280;66809;52.974;-2.514;2023-09-19T06:51:32;990.9805364526047;;;12.41094485576389;45.64652557169088
46382;BME280;66809;52.974;-2.514;2023-09-19T06:53:31;990.957818846716;;;12.454709441026441;45.60700853635081
46382;BME280;66809;52.974;-2.514;2023-09-19T06:55:32;990.9351166534749;;;12.503635110677253;45.55724590316001
46382;BME280;66809;52.974;-2.514;2023-09-19T06:57:31;990.9110253810953;;;12.547461269634367;45.50226258713939
46382;BME280;66809;52.974;-2.514;2023-09-19T06:59:31;990.885690442877;;;12.595689669602105;45.44018042606396
46382;BME280;66809;52.974;-2.514;2023-09-19T07:01:32;990.8574444805839;;;12.638285626743876;45.39015396910202
46382;BME280;66809;52.974;-2.514;2023-09-19T07:03:31;990.8287034673908;;;12.685757815111034;45.331614248695296
46382;BME280;66809;52.974;-2.514;2023-09-19T07:05:32;990.8002668912806;;;12.72823911110969;45.28543079668022
46382;BME280;66809;52.974;-2.514;2023-09-19T07:07:31;990.7697286243103;;;12.774014925512068;45.244513945977864
46382;BME280;66809;52.974;-2.514;2023-09-19T07:09:32;990.7405382855285;;;12.825639155240193;45.21106886824863
46382;BME280;66809;52.974;-2.514;2023-09-19T07:11:31;990.7133661033985;;;12.873190454749922;45.18403608527129
46382;BME280;66809;52.974;-2.514;2023-09-19T07:13:32;990.6846091274754;;;12.93136075591525;45.1491367528531